CheckWX is a tool to help pilots better visualize weather data.  It is not intended as a substitute for an official pre-flight weather briefing.

21:19:04 UTC

KGUS METAR
Grissom ARB Airport
Peru, Indiana, USA
Current

13 mins ago

KGUS 182106Z AUTO 33009KT 10SM SCT028 OVC034 M02/M05 A3036 RMK AO2 SLP295 $
Observed
Feb-18 @ 21:06 UTC
Wind
  • 330° at 9 KTS
Visibility
10 SM
Flight Rules
VFR
Cloud Levels
  • Scattered at 2,800' AGL
  • Overcast at 3,400' AGL
Temperature
-2°C / 28°F
Dewpoint
-5°C / 23°F
Humidity
80%
Altimeter
30.36" Hg
Pressure
1029.5 hPa
Previous

23 mins ago

KGUS 182056Z AUTO 32008KT 10SM BKN028 OVC034 M02/M05 A3036 RMK AO2 BKN V OVC CIG 027 RWY23 SLP295 T10181055 52024 $
Observed
Feb-18 @ 20:56 UTC
Wind
  • 320° at 8 KTS
Visibility
10 SM
Flight Rules
MVFR
Cloud Levels
  • Broken at 2,800' AGL
  • Overcast at 3,400' AGL
Temperature
-2°C / 28°F
Dewpoint
-6°C / 21°F
Humidity
74%
Altimeter
30.36" Hg
Pressure
1029.5 hPa
Previous

1 hour ago

KGUS 182006Z AUTO 34011KT 10SM BKN028 OVC034 M02/M06 A3033 RMK AO2 CIG 026 RWY23 SLP285 $
Observed
Feb-18 @ 20:06 UTC
Wind
  • 340° at 11 KTS
Visibility
10 SM
Flight Rules
MVFR
Cloud Levels
  • Broken at 2,800' AGL
  • Overcast at 3,400' AGL
Temperature
-2°C / 28°F
Dewpoint
-6°C / 21°F
Humidity
74%
Altimeter
30.33" Hg
Pressure
1028.5 hPa